METAR AND TAF INFORMATION
METAR FOR MUHA
ADDS - METARS form results

(2016 UTC 25 April 2018)
Data provider http://aviationweather.gov/adds/metars/
 
METAR text: MUHA 252011Z 25010KT 7000 -RA FEW020TCU BKN025 24/22 Q1014
Conditions at: MUHA (HAVANA/JOSE MAR , CU) observed 2011 UTC 25 April 2018
Temperature: 24.0°C (75°F)
Dewpoint: 22.0°C (72°F) [RH = 89%]
Pressure (altimeter): 29.94 inches Hg (1014.0 mb)
Winds: from the WSW (250 degrees) at 12 MPH (10 knots; 5.2 m/s)
Visibility: 4 miles (7 km)
Ceiling: 2500 feet AGL
Clouds: few clouds at 2000 feet AGL
broken clouds at 2500 feet AGL
Weather: -RA  (light rain)

METAR text: MUHA 251955Z 28006KT 240V340 8000 3800SW RA FEW018TCU BKN030 24/23 Q1 014
Conditions at: MUHA (HAVANA/JOSE MAR , CU) observed 1955 UTC 25 April 2018
Temperature: 24.0°C (75°F)
Dewpoint: 23.0°C (73°F) [RH = 94%]
Pressure (altimeter): missing
Winds: from the W (280 degrees) at 7 MPH (6 knots; 3.1 m/s)
Visibility: 5 miles (8 km)
Ceiling: 3000 feet AGL
Clouds: few clouds at 1800 feet AGL
broken clouds at 3000 feet AGL
Weather: RA  (rain)

Forecast for: MUHA (HAVANA/JOSE MAR , CU)
Text: MUHA 251700Z 2518/2618 35005KT 9000 BKN025
Forecast period: 1800 UTC 25 April 2018 to 0600 UTC 26 April 2018
Forecast type: FROM: standard forecast or significant change
Winds: from the N (350 degrees) at 6 MPH (5 knots; 2.6 m/s)
Visibility: 6 miles (9 km)
Ceiling: 2500 feet AGL
Clouds: broken clouds at 2500 feet AGL
Weather: no significant weather forecast for this period
Forecast for: MUHA (HAVANA/JOSE MAR , CU)
Text: MUHA 251700Z 2518/2618 35005KT 9000 BKN025
Forecast period: 1800 UTC 25 April 2018 to 0600 UTC 26 April 2018
Forecast type: FROM: standard forecast or significant change
Winds: from the N (350 degrees) at 6 MPH (5 knots; 2.6 m/s)
Visibility: 6 miles (9 km)
Ceiling: 2500 feet AGL
Clouds: broken clouds at 2500 feet AGL
Weather: no significant weather forecast for this period
Forecast for: MUHA (HAVANA/JOSE MAR , CU)
Text: MUHA 251700Z 2518/2618 35005KT 9000 BKN025
Forecast period: 1900 to 2300 UTC 25 April 2018
Forecast type: TEMPORARY: The following changes expected for less than half the time period
Winds: variable direction winds at 12 MPH (10 knots; 5.2 m/s)
Visibility: 1.86 miles (2.99 km)
Clouds: few clouds at 1800 feet AGL
Weather: TSRA  (rain associated with thunderstorm(s))
Forecast for: MUHA (HAVANA/JOSE MAR , CU)
Text: MUHA 251700Z 2518/2618 35005KT 9000 BKN025
Forecast period: 1900 to 2300 UTC 25 April 2018
Forecast type: TEMPORARY: The following changes expected for less than half the time period
Winds: variable direction winds at 12 MPH (10 knots; 5.2 m/s)
Visibility: 1.86 miles (2.99 km)
Clouds: few clouds at 1800 feet AGL
Weather: TSRA  (rain associated with thunderstorm(s))
Forecast for: MUHA (HAVANA/JOSE MAR , CU)
Text: MUHA 251700Z 2518/2618 35005KT 9000 BKN025
Forecast period: 0600 to 1800 UTC 26 April 2018
Forecast type: BECOMING: Conditions expected to become as follows by 0800 UTC 26 April 2018
Winds: variable direction winds at 3 MPH (3 knots; 1.6 m/s)
Visibility: 6 miles (9 km)
Clouds: few clouds at 3000 feet AGL
Weather: no significant weather forecast for this period
Forecast for: MUHA (HAVANA/JOSE MAR , CU)
Text: MUHA 251700Z 2518/2618 35005KT 9000 BKN025
Forecast period: 0600 to 1800 UTC 26 April 2018
Forecast type: BECOMING: Conditions expected to become as follows by 0800 UTC 26 April 2018
Winds: variable direction winds at 3 MPH (3 knots; 1.6 m/s)
Visibility: 6 miles (9 km)
Clouds: few clouds at 3000 feet AGL
Weather: no significant weather forecast for this period

 AIRPORT MAP

 RUNWAY INFORMATION
Runway 06 Runway length 13123 ft Runway width 148 ft
Runway elevation 210 ft Runway displaced threshold 0 ft Runway heading 54
Runway 24 Runway length 13123 ft Runway width 148 ft
Runway elevation 210 ft Runway displaced threshold 0 ft Runway heading 234

 AIRPORT FREQUENCIES
Type A/G Name BOYEROS RD Frequency 126.9 MHZ
Type A/G Name BOYEROS RD Frequency 288.7 MHZ
Type A/G Name BOYEROS RD Frequency 1132.1 MHZ
Type A/G Name BOYEROS RD Frequency 1329.7 MHZ
Type APP Name HABANA APP Frequency 119.35 MHZ
Type ATIS Name ATIS Frequency 132.5 MHZ
Type CLD Name CLNC DEL Frequency 121.9 MHZ
Type GND Name GND Frequency 121.9 MHZ
Type TWR Name MARTI TWR Frequency 118.1 MHZ

 AIRPORT NEAR NAVIGATION AIDS
Type VOR-DME Name Habana Frequency 116100 KHZ



Powered by Virtual Airlines Manager [v2.6.2]